Time;durP1;ratioP1;P1;durP2;ratioP2;P2;SDS_P1;SDS_P2;PMS_P1;PMS_P2;Temp;Humidity;BMP_temperature;BMP_pressure;BME280_temperature;BME280_humidity;BME280_pressure;Samples;Min_cycle;Max_cycle;Signal;HPM_P1;HPM_P2
2021/06/24 00:02:23;;;;;;;4.30;0.73;;;26.70;99.90;;;;;;5009499;28;20210;-89
2021/06/24 00:04:54;;;;;;;1.37;0.70;;;27.20;99.90;;;;;;5015377;28;20205;-90
2021/06/24 00:07:26;;;;;;;1.13;0.70;;;27.10;99.90;;;;;;5014060;28;20209;-89
2021/06/24 00:09:58;;;;;;;1.80;0.63;;;27.10;99.90;;;;;;5013890;28;20237;-90
2021/06/24 00:12:29;;;;;;;2.60;0.60;;;27.40;99.90;;;;;;5015783;28;20214;-89
2021/06/24 00:15:01;;;;;;;2.03;0.70;;;27.50;99.90;;;;;;5017643;28;20205;-89
2021/06/24 00:17:32;;;;;;;1.47;0.60;;;27.00;99.90;;;;;;5018547;28;20268;-87
2021/06/24 00:20:05;;;;;;;1.10;0.80;;;27.00;99.90;;;;;;5018698;28;20245;-89
2021/06/24 00:22:36;;;;;;;2.10;0.70;;;26.60;99.90;;;;;;5034634;28;20209;-88
2021/06/24 00:25:10;;;;;;;1.77;0.80;;;27.10;99.90;;;;;;5037664;28;20186;-89
2021/06/24 00:27:42;;;;;;;2.20;0.80;;;27.20;99.90;;;;;;5037923;28;20251;-90
2021/06/24 00:30:15;;;;;;;1.73;0.70;;;27.30;99.90;;;;;;5018121;28;20651;-91
2021/06/24 00:32:46;;;;;;;0.70;0.60;;;27.40;99.90;;;;;;5017026;28;20225;-89
2021/06/24 00:35:17;;;;;;;3.07;0.57;;;27.60;99.90;;;;;;5019810;28;20236;-90
2021/06/24 00:37:48;;;;;;;2.07;0.70;;;27.00;99.90;;;;;;5012618;28;20271;-90
2021/06/24 00:40:24;;;;;;;2.47;0.90;;;26.90;99.90;;;;;;5014970;28;20961;-89
2021/06/24 00:43:00;;;;;;;0.87;0.80;;;27.10;99.90;;;;;;5019651;28;20594;-89
2021/06/24 00:45:30;;;;;;;1.33;0.60;;;27.10;99.90;;;;;;5036031;28;20198;-89
2021/06/24 00:48:01;;;;;;;1.50;0.60;;;27.40;99.90;;;;;;5039646;28;20196;-90
2021/06/24 00:50:32;;;;;;;1.50;0.60;;;27.70;99.90;;;;;;5037196;28;20264;-90
2021/06/24 00:53:04;;;;;;;1.40;0.70;;;28.30;99.90;;;;;;5021832;28;20252;-89
2021/06/24 00:55:42;;;;;;;1.97;0.70;;;28.50;99.90;;;;;;5019220;28;20205;-89
2021/06/24 00:58:16;;;;;;;0.70;0.70;;;29.00;99.90;;;;;;5021084;28;20212;-90
2021/06/24 01:00:48;;;;;;;0.70;0.70;;;29.30;99.90;;;;;;5018109;28;20228;-90
2021/06/24 01:03:19;;;;;;;2.97;0.70;;;29.50;99.90;;;;;;5020497;28;20209;-90
2021/06/24 01:05:51;;;;;;;0.83;0.73;;;30.10;99.90;;;;;;5023533;28;20231;-89
2021/06/24 01:08:24;;;;;;;1.00;0.70;;;30.20;99.90;;;;;;5019672;28;20217;-89
2021/06/24 01:10:57;;;;;;;1.70;0.90;;;29.90;99.90;;;;;;5012662;28;20694;-90
2021/06/24 01:13:30;;;;;;;1.73;0.70;;;30.60;99.90;;;;;;5010649;28;20213;-90
2021/06/24 01:16:01;;;;;;;0.60;0.60;;;30.80;99.90;;;;;;5019636;28;20304;-89
2021/06/24 01:18:32;;;;;;;1.90;1.00;;;30.60;99.90;;;;;;5019363;28;20217;-89
2021/06/24 01:21:04;;;;;;;1.00;0.80;;;31.10;99.90;;;;;;5016743;28;20217;-90
2021/06/24 01:23:42;;;;;;;4.70;0.80;;;30.80;99.90;;;;;;5016932;28;20617;-90
2021/06/24 01:26:13;;;;;;;1.27;0.90;;;30.90;99.90;;;;;;5016902;28;20202;-90
2021/06/24 01:28:44;;;;;;;1.37;0.70;;;31.00;99.90;;;;;;5016920;28;20214;-90
2021/06/24 01:31:16;;;;;;;1.60;0.80;;;31.20;99.90;;;;;;5014593;28;20284;-90
2021/06/24 01:33:49;;;;;;;4.10;0.70;;;30.80;99.90;;;;;;5017054;28;20198;-93
2021/06/24 01:36:19;;;;;;;0.90;0.90;;;30.90;99.90;;;;;;5016150;28;20573;-91
2021/06/24 01:38:53;;;;;;;1.90;0.90;;;31.20;99.90;;;;;;5017187;28;20661;-90
2021/06/24 01:41:24;;;;;;;1.53;0.97;;;31.50;99.90;;;;;;5012684;28;20206;-91
2021/06/24 01:43:55;;;;;;;1.43;0.80;;;31.40;99.90;;;;;;5009273;28;20205;-90
2021/06/24 01:46:27;;;;;;;4.90;0.90;;;31.20;99.90;;;;;;5013443;28;20678;-88
2021/06/24 01:48:58;;;;;;;2.40;1.20;;;31.50;99.90;;;;;;5015037;28;20201;-88
2021/06/24 01:51:30;;;;;;;2.83;0.93;;;31.10;99.90;;;;;;5012819;28;20229;-90
2021/06/24 01:54:06;;;;;;;4.07;0.97;;;30.90;99.90;;;;;;5019000;28;20230;-89
2021/06/24 01:56:39;;;;;;;2.75;0.85;;;30.80;99.90;;;;;;5015967;28;20748;-88
2021/06/24 01:59:10;;;;;;;2.03;0.93;;;31.00;99.90;;;;;;5016951;28;20212;-90
2021/06/24 02:01:42;;;;;;;2.60;0.95;;;31.00;99.90;;;;;;5014544;28;20711;-89
2021/06/24 02:04:13;;;;;;;1.27;0.90;;;31.00;99.90;;;;;;5016838;28;20728;-90
2021/06/24 02:06:44;;;;;;;1.87;1.00;;;30.80;99.90;;;;;;5013405;28;20268;-90
2021/06/24 02:09:18;;;;;;;1.25;1.08;;;31.00;99.90;;;;;;5017519;28;20217;-90
2021/06/24 02:11:49;;;;;;;2.85;0.98;;;30.50;99.90;;;;;;5015676;28;20225;-89
2021/06/24 02:14:20;;;;;;;1.10;1.00;;;30.80;99.90;;;;;;5016274;28;20214;-90
2021/06/24 02:16:51;;;;;;;1.63;1.00;;;31.30;99.90;;;;;;5015557;28;20256;-90
2021/06/24 02:19:22;;;;;;;1.85;1.20;;;31.00;99.90;;;;;;5014576;28;20210;-91
2021/06/24 02:21:53;;;;;;;1.73;0.93;;;30.60;99.90;;;;;;5014487;28;20717;-90
2021/06/24 02:24:26;;;;;;;2.37;1.10;;;30.20;99.90;;;;;;5015583;28;20252;-91
2021/06/24 02:26:57;;;;;;;3.60;1.40;;;29.80;99.90;;;;;;5015523;28;20599;-90
2021/06/24 02:29:28;;;;;;;2.93;1.10;;;30.00;99.90;;;;;;4995659;28;20281;-90
2021/06/24 02:31:58;;;;;;;1.50;1.20;;;29.40;99.90;;;;;;4994811;28;20238;-90
2021/06/24 02:34:29;;;;;;;2.23;1.03;;;30.00;99.90;;;;;;5014106;28;20236;-90
2021/06/24 02:37:01;;;;;;;1.37;1.10;;;29.10;99.90;;;;;;5019335;28;20202;-89
2021/06/24 02:39:34;;;;;;;1.30;1.20;;;28.10;99.90;;;;;;5029590;28;20214;-90
2021/06/24 02:42:05;;;;;;;1.40;1.10;;;27.20;99.90;;;;;;5005320;28;20214;-90
2021/06/24 02:44:36;;;;;;;1.10;1.00;;;26.60;99.90;;;;;;5015371;28;20202;-90
2021/06/24 02:47:07;;;;;;;1.13;0.97;;;26.10;99.90;;;;;;5014449;28;20221;-90
2021/06/24 02:49:38;;;;;;;1.47;1.30;;;25.70;99.90;;;;;;5013515;28;20229;-90
2021/06/24 02:52:09;;;;;;;1.80;1.50;;;25.20;99.90;;;;;;5013729;28;20233;-89
2021/06/24 02:54:43;;;;;;;2.67;1.57;;;24.60;99.90;;;;;;5014678;28;20631;-89
2021/06/24 02:57:14;;;;;;;3.63;1.60;;;24.40;99.90;;;;;;5013119;28;20681;-88
2021/06/24 02:59:45;;;;;;;2.73;1.40;;;24.20;99.90;;;;;;5014681;28;20244;-90
2021/06/24 03:02:16;;;;;;;4.30;1.10;;;24.10;99.90;;;;;;5013975;28;20210;-89
2021/06/24 03:04:47;;;;;;;2.60;1.70;;;24.00;99.90;;;;;;4995345;28;20206;-90
2021/06/24 03:07:18;;;;;;;3.10;1.33;;;23.80;99.90;;;;;;4995456;28;20214;-89
2021/06/24 03:09:50;;;;;;;2.53;1.27;;;23.70;99.90;;;;;;5010541;28;20252;-90
2021/06/24 03:12:21;;;;;;;5.03;2.17;;;23.60;99.90;;;;;;5016209;28;20771;-89
2021/06/24 03:14:53;;;;;;;3.60;1.30;;;23.50;99.90;;;;;;5034799;28;20213;-90
2021/06/24 03:17:24;;;;;;;2.73;1.40;;;23.40;99.90;;;;;;5046068;28;20203;-89
2021/06/24 03:19:56;;;;;;;1.63;1.30;;;23.00;99.90;;;;;;5035042;28;20186;-94
2021/06/24 03:22:27;;;;;;;2.63;1.20;;;22.80;99.90;;;;;;5033965;28;20202;-89
2021/06/24 03:25:01;;;;;;;4.13;2.00;;;22.80;99.90;;;;;;5017044;28;20206;-90
2021/06/24 03:27:31;;;;;;;3.30;1.60;;;22.70;99.90;;;;;;5015067;28;20210;-89
2021/06/24 03:30:03;;;;;;;3.10;1.60;;;22.60;99.90;;;;;;5013405;28;20752;-90
2021/06/24 03:32:34;;;;;;;1.90;1.43;;;22.60;99.90;;;;;;5014216;28;20261;-89
2021/06/24 03:35:05;;;;;;;1.57;1.20;;;22.50;99.90;;;;;;5014140;28;20213;-89
2021/06/24 03:37:37;;;;;;;5.17;1.10;;;22.50;99.90;;;;;;5014049;28;20214;-89
2021/06/24 03:40:15;;;;;;;1.30;1.13;;;22.50;99.90;;;;;;5013358;28;20292;-90
2021/06/24 03:42:47;;;;;;;1.63;1.00;;;22.40;99.90;;;;;;5005081;28;20237;-89
2021/06/24 03:45:18;;;;;;;3.53;1.30;;;22.30;99.90;;;;;;5014125;28;20235;-89
2021/06/24 03:47:49;;;;;;;3.37;1.30;;;22.20;99.90;;;;;;5014177;28;20678;-90
2021/06/24 03:50:19;;;;;;;1.57;1.10;;;22.10;99.90;;;;;;5015400;28;20248;-89
2021/06/24 03:52:50;;;;;;;1.97;1.30;;;22.00;99.90;;;;;;5014057;28;20237;-90
2021/06/24 03:55:35;;;;;;;2.57;1.40;;;21.90;99.90;;;;;;5013916;28;20206;-88
2021/06/24 03:58:08;;;;;;;3.63;1.80;;;21.90;99.90;;;;;;5013782;28;20289;-89
2021/06/24 04:00:42;;;;;;;2.20;1.40;;;21.80;99.90;;;;;;5013406;28;20249;-89
2021/06/24 04:03:13;;;;;;;2.53;1.57;;;21.60;99.90;;;;;;5013844;28;20606;-90
2021/06/24 04:05:45;;;;;;;4.13;1.60;;;21.50;99.90;;;;;;5013330;28;20752;-90
2021/06/24 04:08:16;;;;;;;2.20;1.40;;;21.50;99.90;;;;;;5013523;28;20213;-90
2021/06/24 04:11:05;;;;;;;2.77;1.40;;;21.40;99.90;;;;;;5013975;28;20280;-89
2021/06/24 04:13:56;;;;;;;2.07;1.70;;;21.40;99.90;;;;;;5013769;28;20292;-89
2021/06/24 04:16:27;;;;;;;2.60;1.50;;;21.30;99.90;;;;;;5013483;28;20213;-89
2021/06/24 04:18:59;;;;;;;3.60;1.33;;;21.20;99.90;;;;;;5013234;28;20236;-89
2021/06/24 04:21:30;;;;;;;4.67;1.90;;;21.00;99.90;;;;;;5012489;28;20197;-90
2021/06/24 04:24:02;;;;;;;4.53;1.67;;;20.90;99.90;;;;;;5014030;28;20272;-89
2021/06/24 04:26:35;;;;;;;2.20;1.60;;;20.80;99.90;;;;;;5013081;28;20264;-89
2021/06/24 04:29:06;;;;;;;1.97;1.40;;;20.70;99.90;;;;;;4993852;28;20261;-88
2021/06/24 04:31:37;;;;;;;3.30;1.73;;;20.70;99.90;;;;;;4999914;28;20654;-89
2021/06/24 04:34:08;;;;;;;2.20;1.60;;;20.60;99.90;;;;;;5013447;28;20333;-88
2021/06/24 04:36:43;;;;;;;2.87;1.77;;;20.70;99.90;;;;;;5008200;28;20210;-89
2021/06/24 04:39:15;;;;;;;3.10;1.80;;;20.70;99.90;;;;;;4994115;28;20287;-89
2021/06/24 04:41:47;;;;;;;3.20;2.20;;;20.60;99.90;;;;;;5001899;28;20229;-89
2021/06/24 04:44:18;;;;;;;2.40;1.83;;;20.50;99.90;;;;;;5015434;28;20209;-89
2021/06/24 04:46:50;;;;;;;3.03;1.70;;;20.40;99.90;;;;;;5014141;28;20202;-89
2021/06/24 04:49:21;;;;;;;3.37;1.53;;;20.30;99.90;;;;;;5013490;28;20617;-89
2021/06/24 04:51:52;;;;;;;2.53;1.80;;;20.30;99.90;;;;;;5011257;28;20222;-89
2021/06/24 04:54:24;;;;;;;3.07;1.97;;;20.20;99.90;;;;;;5013812;28;20214;-89
2021/06/24 04:56:57;;;;;;;3.97;2.23;;;20.20;99.90;;;;;;4993727;28;20213;-89
2021/06/24 04:59:28;;;;;;;3.07;2.17;;;20.20;99.90;;;;;;5012961;28;20967;-89
2021/06/24 05:01:59;;;;;;;2.47;1.90;;;20.10;99.90;;;;;;5012434;28;20256;-90
2021/06/24 05:04:30;;;;;;;4.20;2.63;;;20.00;99.90;;;;;;5005265;28;20648;-89
2021/06/24 05:07:08;;;;;;;6.63;3.27;;;20.10;99.90;;;;;;5014017;28;20233;-89
2021/06/24 05:09:41;;;;;;;4.30;1.97;;;19.90;99.90;;;;;;5013304;28;20209;-89
2021/06/24 05:12:15;;;;;;;3.90;2.00;;;19.90;99.90;;;;;;4993270;28;20261;-88
2021/06/24 05:14:46;;;;;;;4.13;2.40;;;19.80;99.90;;;;;;5006207;28;20198;-89
2021/06/24 05:17:17;;;;;;;3.03;1.90;;;19.80;99.90;;;;;;5005545;28;20245;-89
2021/06/24 05:19:49;;;;;;;2.80;2.20;;;19.70;99.90;;;;;;5010959;28;20217;-92
2021/06/24 05:22:20;;;;;;;3.57;2.47;;;19.70;99.90;;;;;;5016688;28;20209;-89
2021/06/24 05:24:51;;;;;;;3.23;2.40;;;19.50;99.90;;;;;;5016021;28;20611;-89
2021/06/24 05:27:23;;;;;;;4.67;2.30;;;19.50;99.90;;;;;;5001683;28;20201;-89
2021/06/24 05:29:54;;;;;;;2.70;2.10;;;19.50;99.90;;;;;;5016690;28;20206;-89
2021/06/24 05:32:25;;;;;;;4.27;2.10;;;19.50;99.90;;;;;;5018477;28;20343;-89
2021/06/24 05:34:56;;;;;;;5.53;2.23;;;19.40;99.90;;;;;;5020663;28;20209;-89
2021/06/24 05:37:27;;;;;;;2.40;1.93;;;19.30;99.90;;;;;;5020008;28;20626;-89
2021/06/24 05:39:58;;;;;;;3.00;2.20;;;19.20;99.90;;;;;;5021543;28;20201;-89
2021/06/24 05:42:31;;;;;;;4.00;2.00;;;19.10;99.90;;;;;;5018157;28;20206;-89
2021/06/24 05:45:01;;;;;;;5.87;2.60;;;19.00;99.90;;;;;;5010060;28;20194;-88
2021/06/24 05:47:32;;;;;;;2.27;2.07;;;19.00;99.90;;;;;;5029875;28;20189;-89
2021/06/24 05:50:05;;;;;;;2.60;1.80;;;19.00;99.90;;;;;;5035363;28;20487;-90
2021/06/24 05:52:37;;;;;;;3.73;2.10;;;18.90;99.90;;;;;;5037978;28;20213;-88
2021/06/24 05:55:10;;;;;;;2.10;1.90;;;18.80;99.90;;;;;;5034384;28;20220;-88
2021/06/24 05:57:43;;;;;;;2.20;1.97;;;18.80;99.90;;;;;;5024984;28;20213;-88
2021/06/24 06:00:15;;;;;;;3.27;1.97;;;18.80;99.90;;;;;;5019083;28;20210;-88
2021/06/24 06:02:46;;;;;;;3.33;1.57;;;18.80;99.90;;;;;;5017051;28;20305;-88
2021/06/24 06:05:17;;;;;;;2.40;1.53;;;18.70;99.90;;;;;;5016875;28;20268;-89
2021/06/24 06:07:48;;;;;;;1.93;1.20;;;18.70;99.90;;;;;;5033640;28;20205;-88
2021/06/24 06:10:20;;;;;;;2.70;1.40;;;18.70;99.90;;;;;;5023352;28;20284;-88
2021/06/24 06:12:53;;;;;;;3.63;1.53;;;18.60;99.90;;;;;;5016013;28;20218;-89
2021/06/24 06:15:24;;;;;;;1.50;1.20;;;18.60;99.90;;;;;;5017628;28;20217;-89
2021/06/24 06:17:56;;;;;;;2.73;1.30;;;18.50;99.90;;;;;;5017496;28;20217;-89
2021/06/24 06:20:28;;;;;;;1.87;1.40;;;18.50;99.90;;;;;;5017892;28;20247;-89
2021/06/24 06:23:07;;;;;;;2.47;1.30;;;18.50;99.90;;;;;;5000034;28;20240;-88
2021/06/24 06:25:40;;;;;;;1.93;1.10;;;18.40;99.90;;;;;;5004854;28;20214;-88
2021/06/24 06:28:18;;;;;;;1.87;1.40;;;18.40;99.90;;;;;;5004931;28;20224;-89
2021/06/24 06:30:50;;;;;;;1.93;1.47;;;18.40;99.90;;;;;;5015674;28;20206;-88
2021/06/24 06:33:23;;;;;;;4.30;1.40;;;18.40;99.90;;;;;;5024632;28;20237;-90
2021/06/24 06:35:55;;;;;;;3.90;1.40;;;18.30;99.90;;;;;;5023691;28;20273;-90
2021/06/24 06:38:31;;;;;;;2.83;1.47;;;18.20;99.90;;;;;;5023581;28;20209;-90
2021/06/24 06:41:03;;;;;;;2.07;1.30;;;18.20;99.90;;;;;;5021723;28;20208;-87
2021/06/24 06:43:36;;;;;;;2.10;1.30;;;18.20;99.90;;;;;;5018887;28;20224;-89
2021/06/24 06:46:07;;;;;;;2.40;1.40;;;18.10;99.90;;;;;;5018000;28;20213;-89
2021/06/24 06:48:40;;;;;;;1.53;1.30;;;18.10;99.90;;;;;;5016368;28;20297;-88
2021/06/24 06:51:14;;;;;;;4.70;1.47;;;18.10;99.90;;;;;;5010852;28;20217;-89
2021/06/24 06:53:46;;;;;;;1.23;1.00;;;18.00;99.90;;;;;;5015774;28;20586;-88
2021/06/24 06:56:17;;;;;;;3.73;1.43;;;18.00;99.90;;;;;;4998332;28;20210;-89
2021/06/24 06:58:52;;;;;;;2.33;1.40;;;18.00;99.90;;;;;;5014735;28;20283;-88
2021/06/24 07:01:23;;;;;;;5.07;1.53;;;17.90;99.90;;;;;;5010994;28;20520;-88
2021/06/24 07:03:54;;;;;;;3.17;1.20;;;17.90;99.90;;;;;;5014885;28;20201;-89
2021/06/24 07:06:28;;;;;;;2.40;1.20;;;17.90;99.90;;;;;;5010757;28;20202;-88
2021/06/24 07:09:00;;;;;;;2.40;1.30;;;17.90;99.90;;;;;;5016050;28;20229;-88
2021/06/24 07:11:31;;;;;;;2.03;1.30;;;17.80;99.90;;;;;;5017601;28;20256;-89
2021/06/24 07:14:04;;;;;;;2.23;1.20;;;17.80;99.90;;;;;;5030138;28;20232;-89
2021/06/24 07:16:36;;;;;;;4.07;1.33;;;17.70;99.90;;;;;;5028309;28;20205;-89
2021/06/24 07:19:10;;;;;;;3.60;1.47;;;17.70;99.90;;;;;;5017436;28;20217;-89
2021/06/24 07:21:41;;;;;;;3.20;1.20;;;17.60;99.90;;;;;;5014786;28;20217;-89
2021/06/24 07:24:14;;;;;;;2.03;1.20;;;17.50;99.90;;;;;;5013730;28;20202;-88
2021/06/24 07:26:44;;;;;;;1.93;1.20;;;17.50;99.90;;;;;;5014601;28;20209;-88
2021/06/24 07:29:20;;;;;;;5.27;1.50;;;17.50;99.90;;;;;;5016015;28;20210;-88
2021/06/24 07:31:50;;;;;;;1.90;1.30;;;17.50;99.90;;;;;;5016543;28;20202;-88
2021/06/24 07:34:22;;;;;;;2.43;1.00;;;17.50;99.90;;;;;;5016107;28;20299;-89
2021/06/24 07:36:53;;;;;;;3.67;1.13;;;17.40;99.90;;;;;;5017303;28;20206;-90
2021/06/24 07:39:26;;;;;;;2.10;1.10;;;17.40;99.90;;;;;;5015108;28;20197;-90
2021/06/24 07:41:59;;;;;;;3.07;1.20;;;17.40;99.90;;;;;;5015426;28;20279;-89
2021/06/24 07:44:34;;;;;;;2.03;1.10;;;17.40;99.90;;;;;;5015313;28;20292;-89
2021/06/24 07:47:05;;;;;;;2.50;1.53;;;17.30;99.90;;;;;;5016290;28;20552;-89
2021/06/24 07:49:37;;;;;;;2.30;1.37;;;17.30;99.90;;;;;;5023381;28;20262;-89
2021/06/24 07:52:10;;;;;;;4.07;1.20;;;17.20;99.90;;;;;;5018894;28;20214;-89
2021/06/24 07:54:49;;;;;;;1.63;1.00;;;17.20;99.90;;;;;;5018302;28;20229;-90
2021/06/24 07:57:21;;;;;;;2.60;1.03;;;17.20;99.90;;;;;;5017102;28;20678;-89
2021/06/24 07:59:54;;;;;;;4.13;1.40;;;17.20;99.90;;;;;;5013743;28;20209;-89
2021/06/24 08:02:26;;;;;;;2.77;1.20;;;17.10;99.90;;;;;;5015863;28;20209;-89
2021/06/24 08:04:56;;;;;;;1.63;1.10;;;17.10;99.90;;;;;;5016555;28;20209;-89
2021/06/24 08:07:27;;;;;;;2.53;1.30;;;17.10;99.90;;;;;;5016349;28;20274;-89
2021/06/24 08:10:02;;;;;;;1.73;1.27;;;17.00;99.90;;;;;;5016209;28;20217;-88
2021/06/24 08:12:34;;;;;;;4.27;1.50;;;17.00;99.90;;;;;;5016375;28;20209;-89
2021/06/24 08:15:08;;;;;;;2.23;1.20;;;17.00;99.90;;;;;;5015888;28;20233;-89
2021/06/24 08:17:42;;;;;;;3.97;1.43;;;17.00;99.90;;;;;;5027804;28;20201;-89
2021/06/24 08:20:17;;;;;;;1.43;1.20;;;16.90;99.90;;;;;;5035567;28;20186;-87
2021/06/24 08:22:49;;;;;;;3.03;1.77;;;16.80;99.90;;;;;;5034742;28;20228;-88
2021/06/24 08:25:20;;;;;;;6.70;2.03;;;16.80;99.90;;;;;;5018021;28;20210;-89
2021/06/24 08:27:51;;;;;;;3.70;1.50;;;16.70;99.90;;;;;;5014328;28;20223;-89
2021/06/24 08:30:25;;;;;;;1.40;1.30;;;16.70;99.90;;;;;;5013050;28;20216;-89
2021/06/24 08:32:56;;;;;;;4.20;1.33;;;16.80;99.90;;;;;;5015228;28;20267;-88
2021/06/24 08:35:30;;;;;;;2.43;1.20;;;16.80;99.90;;;;;;5012422;28;20305;-90
2021/06/24 08:38:02;;;;;;;4.47;1.30;;;16.70;99.90;;;;;;5014423;28;20208;-87
2021/06/24 08:40:39;;;;;;;3.00;1.47;;;16.70;99.90;;;;;;5026206;28;20201;-89
2021/06/24 08:46:07;;;;;;;3.30;1.50;;;16.70;99.90;;;;;;5015013;28;20202;-89
2021/06/24 08:48:40;;;;;;;2.53;1.50;;;16.70;99.90;;;;;;5010900;28;20221;-89
2021/06/24 08:51:11;;;;;;;3.73;1.30;;;16.70;99.90;;;;;;5013582;28;20272;-89
2021/06/24 08:53:52;;;;;;;2.43;1.00;;;16.70;99.90;;;;;;5016810;28;20209;-89
2021/06/24 08:56:22;;;;;;;4.40;1.50;;;16.60;99.90;;;;;;5017109;28;20209;-89
2021/06/24 08:58:57;;;;;;;5.20;1.70;;;16.60;99.90;;;;;;5017489;28;20209;-89
2021/06/24 09:01:52;;;;;;;5.40;1.30;;;16.60;99.90;;;;;;5016650;28;20213;-89
2021/06/24 09:04:30;;;;;;;2.07;1.40;;;16.50;99.90;;;;;;5017307;28;20229;-89
2021/06/24 09:07:09;;;;;;;3.63;1.50;;;16.50;99.90;;;;;;5016705;28;20252;-89
2021/06/24 09:09:49;;;;;;;2.33;1.30;;;16.50;99.90;;;;;;5017319;28;20300;-89
2021/06/24 09:12:21;;;;;;;2.67;1.30;;;16.40;99.90;;;;;;5018219;28;20658;-89
2021/06/24 09:14:55;;;;;;;3.77;1.60;;;16.40;99.90;;;;;;5037088;28;20693;-88
2021/06/24 09:17:38;;;;;;;2.37;1.43;;;16.40;99.90;;;;;;5017479;28;20212;-88
2021/06/24 09:20:34;;;;;;;2.43;1.13;;;16.40;99.90;;;;;;5016968;28;20218;-88
2021/06/24 09:23:08;;;;;;;1.77;1.33;;;16.40;99.90;;;;;;5035672;28;20201;-88
2021/06/24 09:25:40;;;;;;;2.73;1.30;;;16.30;99.90;;;;;;5017700;28;20216;-88
2021/06/24 09:28:12;;;;;;;3.97;1.33;;;16.30;99.90;;;;;;5016881;28;20252;-88
2021/06/24 09:30:44;;;;;;;2.17;1.33;;;16.30;99.90;;;;;;5016169;28;20301;-87
2021/06/24 09:33:18;;;;;;;2.27;1.20;;;16.20;99.90;;;;;;5016689;28;20304;-88
2021/06/24 09:35:56;;;;;;;2.67;1.33;;;16.30;99.90;;;;;;5017097;28;20609;-88
2021/06/24 09:38:27;;;;;;;3.23;1.00;;;16.20;99.90;;;;;;5016625;28;20240;-87
2021/06/24 09:40:58;;;;;;;2.07;1.17;;;16.20;99.90;;;;;;5018671;28;20292;-89
2021/06/24 09:43:36;;;;;;;3.23;1.30;;;16.20;99.90;;;;;;5017482;28;20213;-89
2021/06/24 09:46:11;;;;;;;1.80;1.20;;;16.10;99.90;;;;;;5016848;28;20217;-88
2021/06/24 09:48:44;;;;;;;4.07;1.30;;;16.00;99.90;;;;;;5016502;28;20263;-88
2021/06/24 09:51:19;;;;;;;2.83;1.40;;;16.00;99.90;;;;;;5015606;28;20237;-88
2021/06/24 09:53:55;;;;;;;1.33;1.07;;;16.00;99.90;;;;;;5015376;28;20610;-88
2021/06/24 09:56:30;;;;;;;3.60;1.30;;;16.00;99.90;;;;;;5015865;28;20237;-88
2021/06/24 09:59:05;;;;;;;2.30;1.20;;;16.00;99.90;;;;;;5017252;28;20212;-88
2021/06/24 10:01:41;;;;;;;2.30;1.20;;;16.00;99.90;;;;;;5015976;28;20241;-88
2021/06/24 10:04:22;;;;;;;3.17;1.30;;;16.00;99.90;;;;;;5016706;28;20209;-89
2021/06/24 10:06:55;;;;;;;2.70;1.40;;;16.00;99.90;;;;;;5016074;28;20256;-88
2021/06/24 10:09:28;;;;;;;3.10;1.10;;;16.00;99.90;;;;;;5016146;28;20292;-88
2021/06/24 10:12:01;;;;;;;1.63;1.03;;;16.00;99.90;;;;;;5022619;28;20233;-88
2021/06/24 10:14:32;;;;;;;1.53;1.10;;;16.00;99.90;;;;;;5016534;28;20206;-88
2021/06/24 10:17:04;;;;;;;4.20;1.23;;;16.00;99.90;;;;;;5015909;28;20205;-89
2021/06/24 10:19:39;;;;;;;4.63;1.30;;;16.00;99.90;;;;;;5015916;28;20214;-88
2021/06/24 10:22:14;;;;;;;3.93;1.67;;;15.90;99.90;;;;;;5015189;28;20209;-88
2021/06/24 10:24:50;;;;;;;1.67;1.37;;;15.90;99.90;;;;;;4996886;28;20205;-88
2021/06/24 10:27:22;;;;;;;2.77;1.10;;;15.90;99.90;;;;;;4996324;28;20285;-87
2021/06/24 10:29:55;;;;;;;2.40;1.17;;;15.90;99.90;;;;;;4995913;28;20240;-88
2021/06/24 10:32:28;;;;;;;2.20;1.10;;;15.90;99.90;;;;;;4996810;28;20293;-88
2021/06/24 10:35:03;;;;;;;2.73;1.13;;;15.90;99.90;;;;;;4996210;28;20241;-88
2021/06/24 10:37:35;;;;;;;2.77;1.20;;;16.10;99.90;;;;;;4996813;28;20305;-88
2021/06/24 10:40:27;;;;;;;4.17;1.30;;;16.00;99.90;;;;;;4999559;28;20214;-88
2021/06/24 10:43:00;;;;;;;4.30;1.23;;;15.90;99.90;;;;;;5015842;28;20237;-88
2021/06/24 10:45:31;;;;;;;2.63;1.20;;;15.90;99.90;;;;;;5016806;28;20206;-88
2021/06/24 10:48:29;;;;;;;1.50;1.00;;;15.80;99.90;;;;;;5016933;28;20682;-88
2021/06/24 10:51:04;;;;;;;3.70;1.57;;;15.80;99.90;;;;;;5016031;28;20716;-88
2021/06/24 10:53:53;;;;;;;1.87;1.53;;;15.80;99.90;;;;;;5018985;28;20314;-88
2021/06/24 10:56:27;;;;;;;3.93;1.37;;;15.70;99.90;;;;;;5037544;28;20232;-87
2021/06/24 10:58:59;;;;;;;3.17;1.37;;;15.70;99.90;;;;;;5037575;28;20193;-88
2021/06/24 11:01:44;;;;;;;3.53;1.50;;;15.60;99.90;;;;;;5029041;28;20214;-88
2021/06/24 11:04:33;;;;;;;1.53;1.30;;;15.70;99.90;;;;;;5002789;28;20241;-87
2021/06/24 11:07:23;;;;;;;4.10;1.53;;;15.70;99.90;;;;;;5000745;28;20214;-88
2021/06/24 11:10:16;;;;;;;3.63;1.50;;;15.70;99.90;;;;;;5012097;28;20197;-89
2021/06/24 11:12:55;;;;;;;2.10;1.30;;;15.60;99.90;;;;;;5041498;28;20231;-88
2021/06/24 11:15:51;;;;;;;3.17;1.50;;;15.60;99.90;;;;;;5056209;28;20319;-89
2021/06/24 11:18:55;;;;;;;1.73;1.10;;;15.70;99.90;;;;;;5030974;28;20209;-88
2021/06/24 11:21:58;;;;;;;4.20;1.50;;;15.70;99.90;;;;;;5026107;28;20205;-89
2021/06/24 11:24:32;;;;;;;1.37;1.23;;;15.70;99.90;;;;;;5024499;28;20201;-89
2021/06/24 11:27:03;;;;;;;3.30;1.50;;;15.70;99.90;;;;;;5019287;28;20223;-88
2021/06/24 11:29:46;;;;;;;3.07;1.67;;;15.80;99.90;;;;;;5015401;28;20289;-88
2021/06/24 11:32:19;;;;;;;5.70;1.57;;;15.80;99.90;;;;;;5015511;28;20232;-88
2021/06/24 11:34:54;;;;;;;1.90;1.33;;;15.80;99.90;;;;;;5015212;28;20292;-88
2021/06/24 11:37:26;;;;;;;2.80;1.80;;;15.80;99.90;;;;;;5014563;28;20268;-88
2021/06/24 11:40:00;;;;;;;3.13;1.30;;;15.90;99.90;;;;;;5014297;28;20304;-88
2021/06/24 11:42:41;;;;;;;2.47;1.30;;;15.90;99.90;;;;;;5014959;28;20293;-88
2021/06/24 11:45:13;;;;;;;1.93;0.90;;;15.90;99.90;;;;;;5014518;28;20216;-88
2021/06/24 11:47:46;;;;;;;4.03;1.27;;;15.90;99.90;;;;;;5014070;28;20296;-88
2021/06/24 12:04:29;;;;;;;1.83;1.30;;;16.00;99.90;;;;;;5018967;28;20688;-88
2021/06/24 12:07:06;;;;;;;4.10;1.70;;;16.10;99.90;;;;;;5020916;28;20213;-88
2021/06/24 12:09:46;;;;;;;2.30;1.50;;;16.10;99.90;;;;;;5014347;28;20206;-88
2021/06/24 12:12:21;;;;;;;1.93;1.60;;;16.20;99.90;;;;;;5013923;28;20198;-88
2021/06/24 12:14:55;;;;;;;2.33;1.70;;;16.30;99.90;;;;;;5013950;28;20209;-88
2021/06/24 12:17:28;;;;;;;2.60;1.50;;;16.20;99.90;;;;;;5013494;28;20257;-88
2021/06/24 12:20:01;;;;;;;2.33;1.50;;;16.30;99.90;;;;;;5012898;28;20236;-88
2021/06/24 12:22:48;;;;;;;2.37;1.60;;;16.20;99.90;;;;;;5013730;28;20241;-87
2021/06/24 12:25:22;;;;;;;4.13;1.53;;;16.10;99.90;;;;;;5013859;28;20213;-88
2021/06/24 12:27:57;;;;;;;2.93;1.63;;;16.00;99.90;;;;;;5013010;28;20241;-88
2021/06/24 12:30:30;;;;;;;2.27;1.50;;;16.00;99.90;;;;;;5020601;28;20205;-89
2021/06/24 12:33:04;;;;;;;3.10;1.70;;;16.00;99.90;;;;;;5020128;28;20333;-87
2021/06/24 12:35:36;;;;;;;4.03;1.53;;;15.90;99.90;;;;;;5020506;28;20371;-89
2021/06/24 12:38:08;;;;;;;2.43;1.60;;;15.90;99.90;;;;;;5019153;28;20624;-89
2021/06/24 12:40:41;;;;;;;5.50;2.23;;;15.90;99.90;;;;;;5020153;28;20240;-88
2021/06/24 12:43:20;;;;;;;4.20;1.50;;;15.80;99.90;;;;;;5018340;28;20662;-88
2021/06/24 12:45:53;;;;;;;5.30;2.10;;;15.80;99.90;;;;;;5013785;28;20236;-89
2021/06/24 12:48:29;;;;;;;3.07;1.70;;;15.90;99.90;;;;;;5017955;28;20240;-88
2021/06/24 12:51:02;;;;;;;3.43;1.70;;;15.90;99.90;;;;;;5015660;28;20220;-88
2021/06/24 12:53:38;;;;;;;4.63;1.77;;;16.00;99.90;;;;;;5019961;28;20311;-88
2021/06/24 12:56:22;;;;;;;3.40;1.60;;;16.00;99.90;;;;;;5017328;28;20279;-88
2021/06/24 12:59:06;;;;;;;3.60;2.00;;;16.00;99.90;;;;;;5024816;28;20205;-88
2021/06/24 13:01:38;;;;;;;5.77;1.70;;;16.00;99.90;;;;;;5035932;28;20212;-88
2021/06/24 13:04:13;;;;;;;3.50;1.70;;;16.00;99.90;;;;;;5037228;28;20213;-88
2021/06/24 13:06:46;;;;;;;5.13;2.00;;;16.00;99.90;;;;;;5035566;28;20291;-88
2021/06/24 13:09:18;;;;;;;5.37;1.80;;;16.10;99.90;;;;;;5037032;28;20233;-88
2021/06/24 13:11:58;;;;;;;4.10;2.07;;;16.10;99.90;;;;;;5035811;28;20259;-88
2021/06/24 13:14:33;;;;;;;7.27;2.17;;;16.00;99.90;;;;;;5018557;28;20280;-88
2021/06/24 13:17:09;;;;;;;5.67;2.00;;;16.10;99.90;;;;;;5017159;28;20241;-88
2021/06/24 13:19:40;;;;;;;6.43;1.90;;;16.10;99.90;;;;;;5017600;28;20213;-88
2021/06/24 13:22:15;;;;;;;4.40;1.83;;;16.10;99.90;;;;;;5017067;28;20226;-88
2021/06/24 13:24:49;;;;;;;9.87;2.40;;;16.10;99.90;;;;;;5021251;28;20307;-88
2021/06/24 13:27:26;;;;;;;6.83;1.87;;;16.20;99.90;;;;;;5035059;28;20204;-86
2021/06/24 13:30:00;;;;;;;5.03;1.70;;;16.20;99.90;;;;;;5038428;28;20210;-89
2021/06/24 13:32:32;;;;;;;4.60;2.10;;;16.20;99.90;;;;;;5029552;28;20685;-88
2021/06/24 13:35:13;;;;;;;4.30;1.57;;;16.30;99.90;;;;;;5017091;28;20267;-88
2021/06/24 13:37:51;;;;;;;3.03;1.70;;;16.40;99.90;;;;;;5019025;28;20340;-88
2021/06/24 13:40:25;;;;;;;4.50;1.80;;;16.60;99.90;;;;;;5019743;28;20209;-89